Time;durP1;ratioP1;P1;durP2;ratioP2;P2;SDS_P1;SDS_P2;PMS_P1;PMS_P2;Temp;Humidity;BMP_temperature;BMP_pressure;BME280_temperature;BME280_humidity;BME280_pressure;Samples;Min_cycle;Max_cycle;Signal;HPM_P1;HPM_P2
2021/12/31 00:01:53;;;;;;;21.00;12.95;;;;;;;-2.49;100.00;100528.48;1770535;80;21331;-81
2021/12/31 00:04:59;;;;;;;18.20;11.03;;;;;;;-2.47;100.00;100535.50;1769677;80;21308;-81
2021/12/31 00:08:06;;;;;;;17.25;11.80;;;;;;;-2.45;100.00;100528.70;1770500;81;21300;-81
2021/12/31 00:11:13;;;;;;;19.40;11.60;;;;;;;-2.52;100.00;100529.55;1770961;80;21778;-81
2021/12/31 00:14:20;;;;;;;20.25;13.15;;;;;;;-2.51;100.00;100517.02;1769927;80;21351;-81
2021/12/31 00:17:25;;;;;;;21.75;14.20;;;;;;;-2.46;100.00;100521.15;1769246;81;21316;-81
2021/12/31 00:20:32;;;;;;;26.33;14.33;;;;;;;-2.36;100.00;100521.00;1769190;81;21130;-81
2021/12/31 00:23:41;;;;;;;19.32;12.80;;;;;;;-2.26;100.00;100517.30;1769177;81;21315;-81
2021/12/31 00:26:45;;;;;;;20.97;13.32;;;;;;;-2.18;100.00;100508.83;1770566;81;21284;-81
2021/12/31 00:29:50;;;;;;;25.68;15.60;;;;;;;-2.24;100.00;100499.81;1796028;79;21311;-81
2021/12/31 00:32:55;;;;;;;21.40;13.72;;;;;;;-2.33;100.00;100503.41;1803252;79;21292;-81
2021/12/31 00:36:01;;;;;;;21.85;14.07;;;;;;;-2.40;100.00;100501.17;1803296;79;21897;-81
2021/12/31 00:39:06;;;;;;;23.02;13.55;;;;;;;-2.44;100.00;100499.17;1803279;79;21300;-80
2021/12/31 00:42:11;;;;;;;22.52;13.95;;;;;;;-2.46;100.00;100497.52;1803298;79;21287;-81
2021/12/31 00:45:18;;;;;;;21.70;14.58;;;;;;;-2.49;100.00;100495.00;1803083;79;21743;-81
2021/12/31 00:48:24;;;;;;;22.52;14.05;;;;;;;-2.52;100.00;100485.83;1803229;79;21300;-81
2021/12/31 00:51:29;;;;;;;20.68;13.53;;;;;;;-2.54;100.00;100484.59;1803149;79;21264;-81
2021/12/31 00:54:35;;;;;;;24.85;13.68;;;;;;;-2.47;100.00;100481.92;1803098;79;21794;-81
2021/12/31 00:57:41;;;;;;;19.75;13.22;;;;;;;-2.41;100.00;100482.90;1801807;79;21300;-81
2021/12/31 01:00:47;;;;;;;20.68;13.15;;;;;;;-2.38;100.00;100477.85;1801847;79;21196;-81
2021/12/31 01:03:54;;;;;;;25.08;14.80;;;;;;;-2.35;100.00;100483.05;1801864;79;21208;-81
2021/12/31 01:06:59;;;;;;;23.83;15.85;;;;;;;-2.34;100.00;100482.08;1803240;79;21169;-81
2021/12/31 01:10:04;;;;;;;22.02;14.87;;;;;;;-2.35;100.00;100475.86;1803384;79;21265;-81
2021/12/31 01:13:19;;;;;;;28.80;17.55;;;;;;;-2.32;100.00;100473.47;1801641;79;21215;-82
2021/12/31 01:16:21;;;;;;;20.65;14.40;;;;;;;-2.30;100.00;100476.07;1803131;79;21280;-81
2021/12/31 01:22:33;;;;;;;24.95;15.68;;;;;;;-2.27;100.00;100475.88;1803286;79;21834;-81
2021/12/31 01:25:38;;;;;;;24.15;14.70;;;;;;;-2.28;100.00;100480.38;1803417;79;21268;-81
2021/12/31 01:28:44;;;;;;;25.10;15.00;;;;;;;-2.24;100.00;100486.42;1801761;79;21319;-81
2021/12/31 01:31:53;;;;;;;19.92;13.13;;;;;;;-2.18;100.00;100488.73;1801479;79;21281;-81
2021/12/31 01:34:58;;;;;;;21.55;14.47;;;;;;;-2.13;100.00;100490.17;1788942;80;21316;-81
2021/12/31 01:38:05;;;;;;;28.90;17.55;;;;;;;-2.08;100.00;100486.73;1801158;79;21299;-81
2021/12/31 01:41:10;;;;;;;25.02;16.12;;;;;;;-2.04;100.00;100493.27;1794601;79;21260;-81
2021/12/31 01:44:14;;;;;;;23.25;14.40;;;;;;;-1.99;100.00;100495.20;1788303;80;21251;-81
2021/12/31 01:47:23;;;;;;;22.73;14.80;;;;;;;-2.01;100.00;100489.94;1801947;79;21759;-82
2021/12/31 01:50:31;;;;;;;22.80;14.98;;;;;;;-2.06;100.00;100494.23;1803500;79;21257;-81
2021/12/31 01:53:36;;;;;;;24.10;14.65;;;;;;;-2.07;100.00;100499.66;1787092;80;21303;-81
2021/12/31 01:56:41;;;;;;;20.17;12.70;;;;;;;-2.11;100.00;100499.00;1800907;79;21303;-82
2021/12/31 01:59:46;;;;;;;21.40;13.62;;;;;;;-2.22;100.00;100489.38;1803331;79;21332;-81
2021/12/31 02:02:53;;;;;;;22.00;12.98;;;;;;;-2.33;100.00;100487.34;1803194;79;21739;-81
2021/12/31 02:06:00;;;;;;;20.97;13.40;;;;;;;-2.29;100.00;100469.75;1803360;79;21320;-81
2021/12/31 02:09:06;;;;;;;21.37;13.18;;;;;;;-2.27;100.00;100457.11;1803356;79;21473;-81
2021/12/31 02:12:11;;;;;;;25.35;15.20;;;;;;;-2.24;100.00;100447.56;1803253;79;21327;-81
2021/12/31 02:15:17;;;;;;;33.02;15.93;;;;;;;-2.16;100.00;100438.59;1801685;79;21153;-81
2021/12/31 02:18:22;;;;;;;47.45;19.23;;;;;;;-2.14;100.00;100438.02;1803342;79;21379;-81
2021/12/31 02:21:28;;;;;;;43.25;17.75;;;;;;;-2.27;100.00;100439.22;1790533;80;21260;-81
2021/12/31 02:24:35;;;;;;;32.45;15.55;;;;;;;-2.34;100.00;100436.05;1801361;79;21303;-81
2021/12/31 02:27:45;;;;;;;20.68;12.90;;;;;;;-2.35;100.00;100437.02;1789794;80;21207;-81
2021/12/31 02:30:50;;;;;;;15.38;9.43;;;;;;;-2.33;100.00;100429.73;1795389;79;21910;-81
2021/12/31 02:33:55;;;;;;;20.27;13.03;;;;;;;-2.32;100.00;100430.59;1764976;81;21288;-81
2021/12/31 02:37:00;;;;;;;17.37;12.18;;;;;;;-2.40;100.00;100428.39;1800822;79;21870;-81
2021/12/31 02:40:12;;;;;;;20.08;12.50;;;;;;;-2.45;100.00;100431.79;1798360;79;21268;-81
2021/12/31 02:43:20;;;;;;;19.00;11.48;;;;;;;-2.44;100.00;100429.52;1802851;79;21299;-82
2021/12/31 02:46:25;;;;;;;23.05;13.90;;;;;;;-2.45;100.00;100430.45;1800727;78;21318;-81
2021/12/31 02:49:34;;;;;;;20.25;12.88;;;;;;;-2.46;100.00;100426.05;1800964;79;21157;-82
2021/12/31 02:52:37;;;;;;;20.80;13.30;;;;;;;-2.46;100.00;100427.39;1803142;79;21303;-82
2021/12/31 02:55:43;;;;;;;20.17;12.43;;;;;;;-2.47;100.00;100424.34;1802531;79;21145;-81
2021/12/31 02:58:50;;;;;;;20.62;12.88;;;;;;;-2.42;100.00;100430.76;1802509;79;21853;-81
2021/12/31 03:01:55;;;;;;;21.00;13.95;;;;;;;-2.38;100.00;100430.48;1806410;77;21188;-82
2021/12/31 03:05:01;;;;;;;20.43;13.93;;;;;;;-2.38;100.00;100418.91;1803007;79;21263;-81
2021/12/31 03:08:10;;;;;;;20.97;13.35;;;;;;;-2.37;100.00;100417.95;1803083;79;21288;-81
2021/12/31 03:11:15;;;;;;;22.80;14.10;;;;;;;-2.35;100.00;100414.24;1801862;79;21157;-81
2021/12/31 03:14:20;;;;;;;21.97;13.08;;;;;;;-2.37;100.00;100411.25;1806173;79;21272;-81
2021/12/31 03:17:25;;;;;;;19.50;13.22;;;;;;;-2.36;100.00;100409.81;1803182;79;21185;-81
2021/12/31 03:20:38;;;;;;;17.80;13.28;;;;;;;-2.37;100.00;100400.54;1802975;79;21264;-81
2021/12/31 03:23:43;;;;;;;20.48;12.75;;;;;;;-2.38;100.00;100391.64;1803281;79;21291;-81
2021/12/31 03:26:49;;;;;;;18.27;12.10;;;;;;;-2.45;100.00;100388.93;1803276;79;21450;-81
2021/12/31 03:29:54;;;;;;;19.67;11.95;;;;;;;-2.66;100.00;100384.87;1802893;79;21723;-81
2021/12/31 03:33:01;;;;;;;18.32;11.95;;;;;;;-2.80;100.00;100392.37;1801842;79;21283;-81
2021/12/31 03:36:06;;;;;;;18.05;12.10;;;;;;;-2.84;100.00;100389.00;1803336;79;21146;-81
2021/12/31 03:39:11;;;;;;;20.45;12.73;;;;;;;-2.88;100.00;100388.78;1803344;79;21172;-81
2021/12/31 03:42:18;;;;;;;24.37;15.15;;;;;;;-2.90;100.00;100401.89;1803304;79;21843;-81
2021/12/31 03:45:23;;;;;;;23.83;13.38;;;;;;;-2.90;100.00;100401.41;1803310;79;21260;-81
2021/12/31 03:48:28;;;;;;;22.20;13.08;;;;;;;-2.86;100.00;100392.25;1803364;79;22447;-81
2021/12/31 03:51:33;;;;;;;23.73;15.00;;;;;;;-2.87;100.00;100393.21;1803306;79;21272;-81
2021/12/31 03:54:39;;;;;;;19.00;12.25;;;;;;;-2.90;100.00;100391.18;1803251;79;21181;-81
2021/12/31 03:57:45;;;;;;;23.85;14.05;;;;;;;-2.87;100.00;100385.63;1802447;79;21303;-81
2021/12/31 04:00:51;;;;;;;28.75;16.17;;;;;;;-2.87;100.00;100386.52;1801509;79;21161;-81
2021/12/31 04:03:58;;;;;;;29.32;16.23;;;;;;;-2.83;100.00;100396.07;1803071;79;21229;-81
2021/12/31 04:07:04;;;;;;;36.60;18.12;;;;;;;-2.78;100.00;100388.25;1802989;79;21327;-80
2021/12/31 04:10:09;;;;;;;32.95;16.30;;;;;;;-2.69;100.00;100382.36;1801989;79;21300;-81
2021/12/31 04:13:15;;;;;;;28.92;15.23;;;;;;;-2.65;100.00;100378.07;1802165;79;21315;-81
2021/12/31 04:16:20;;;;;;;25.62;15.80;;;;;;;-2.66;100.00;100366.98;1803084;79;21273;-81
2021/12/31 04:19:27;;;;;;;21.93;13.70;;;;;;;-2.71;100.00;100368.21;1801599;79;21160;-81
2021/12/31 04:22:37;;;;;;;25.45;14.78;;;;;;;-2.76;100.00;100369.82;1802547;79;21351;-82
2021/12/31 04:25:43;;;;;;;20.50;13.83;;;;;;;-2.78;100.00;100368.17;1801671;79;21139;-81
2021/12/31 04:28:49;;;;;;;20.15;12.75;;;;;;;-2.79;100.00;100366.45;1801719;79;21323;-81
2021/12/31 04:31:54;;;;;;;20.72;13.20;;;;;;;-2.83;100.00;100359.07;1801391;79;21300;-81
2021/12/31 04:35:00;;;;;;;20.43;13.62;;;;;;;-2.88;100.00;100365.17;1801383;79;21157;-81
2021/12/31 04:38:06;;;;;;;24.87;13.72;;;;;;;-2.90;100.00;100362.59;1789736;80;21174;-81
2021/12/31 04:41:11;;;;;;;21.05;13.72;;;;;;;-2.91;100.00;100364.89;1802988;79;21279;-81
2021/12/31 04:44:16;;;;;;;30.62;16.30;;;;;;;-2.94;100.00;100368.22;1802593;79;21260;-81
2021/12/31 04:47:22;;;;;;;25.65;15.32;;;;;;;-2.93;100.00;100377.48;1803051;78;21178;-81
2021/12/31 04:50:28;;;;;;;23.87;14.78;;;;;;;-2.88;100.00;100372.72;1790031;79;21166;-81
2021/12/31 04:53:34;;;;;;;33.02;16.65;;;;;;;-2.81;100.00;100387.11;1801888;79;21785;-81
2021/12/31 04:56:39;;;;;;;29.77;17.10;;;;;;;-2.78;100.00;100378.88;1803073;79;21251;-81
2021/12/31 04:59:43;;;;;;;29.23;16.87;;;;;;;-2.72;100.00;100387.44;1803159;79;21259;-81
2021/12/31 05:02:50;;;;;;;27.00;16.57;;;;;;;-2.66;100.00;100390.22;1801666;79;21730;-81
2021/12/31 05:05:55;;;;;;;27.30;16.75;;;;;;;-2.63;100.00;100391.39;1802773;79;21297;-82
2021/12/31 05:09:01;;;;;;;35.73;19.98;;;;;;;-2.57;100.00;100401.73;1803368;79;21315;-81
2021/12/31 05:12:06;;;;;;;40.63;19.60;;;;;;;-2.49;100.00;100410.63;1803303;79;21341;-81
2021/12/31 05:15:15;;;;;;;38.05;19.85;;;;;;;-2.51;100.00;100421.92;1801211;79;21264;-81
2021/12/31 05:18:23;;;;;;;34.88;18.62;;;;;;;-2.59;100.00;100422.36;1801331;78;21280;-81
2021/12/31 05:21:28;;;;;;;42.60;22.62;;;;;;;-2.67;100.00;100416.62;1801210;79;21268;-81
2021/12/31 05:24:34;;;;;;;49.90;25.12;;;;;;;-2.69;100.00;100409.99;1802609;79;21174;-81
2021/12/31 05:27:39;;;;;;;44.45;23.32;;;;;;;-2.65;100.00;100412.02;1802001;79;21208;-81
2021/12/31 05:30:44;;;;;;;41.80;21.97;;;;;;;-2.57;100.00;100414.64;1803347;79;21703;-81
2021/12/31 05:33:51;;;;;;;47.08;24.52;;;;;;;-2.47;100.00;100409.60;1799379;79;21287;-80
2021/12/31 05:36:55;;;;;;;39.67;22.80;;;;;;;-2.41;100.00;100405.20;1800749;79;21292;-81
2021/12/31 05:40:01;;;;;;;50.83;25.05;;;;;;;-2.39;100.00;100401.98;1796591;79;21758;-82
2021/12/31 05:43:06;;;;;;;50.43;24.20;;;;;;;-2.40;100.00;100398.92;1771471;81;21358;-82
2021/12/31 05:46:11;;;;;;;52.43;27.13;;;;;;;-2.44;100.00;100392.02;1771472;81;21355;-81
2021/12/31 05:49:17;;;;;;;44.98;23.42;;;;;;;-2.53;100.00;100387.21;1770632;79;21754;-81
2021/12/31 05:52:22;;;;;;;42.65;23.47;;;;;;;-2.69;100.00;100386.37;1770501;81;21300;-81
2021/12/31 05:55:28;;;;;;;47.58;24.23;;;;;;;-2.80;100.00;100388.35;1770098;81;21169;-81
2021/12/31 05:58:33;;;;;;;63.13;30.52;;;;;;;-2.91;100.00;100402.37;1771239;81;21346;-82
2021/12/31 06:01:38;;;;;;;53.70;28.27;;;;;;;-2.93;100.00;100408.27;1771444;81;21320;-81
2021/12/31 06:04:44;;;;;;;53.95;27.77;;;;;;;-2.85;100.00;100411.38;1770138;80;21157;-81
2021/12/31 06:07:50;;;;;;;63.75;30.68;;;;;;;-2.75;100.00;100417.53;1771437;81;21227;-81
2021/12/31 06:10:56;;;;;;;60.35;30.48;;;;;;;-2.67;100.00;100419.30;1771262;81;21332;-81
2021/12/31 06:14:02;;;;;;;61.33;31.33;;;;;;;-2.60;100.00;100419.31;1790463;79;21244;-81
2021/12/31 06:17:08;;;;;;;99.17;41.55;;;;;;;-2.53;100.00;100415.33;1789179;78;21787;-81
2021/12/31 06:20:13;;;;;;;94.05;41.65;;;;;;;-2.46;100.00;100411.31;1779426;78;21299;-81
2021/12/31 06:23:19;;;;;;;87.88;42.67;;;;;;;-2.44;100.00;100415.27;1783585;78;21733;-82
2021/12/31 06:26:26;;;;;;;90.30;41.28;;;;;;;-2.52;100.00;100417.05;1775693;78;21219;-82
2021/12/31 06:29:32;;;;;;;70.15;35.08;;;;;;;-2.59;100.00;100404.51;1780045;79;21335;-81
2021/12/31 06:32:38;;;;;;;91.20;41.37;;;;;;;-2.68;100.00;100409.52;1788317;78;21290;-81
2021/12/31 06:35:45;;;;;;;75.30;37.90;;;;;;;-2.75;100.00;100410.84;1784417;79;21327;-81
2021/12/31 06:38:51;;;;;;;76.10;36.75;;;;;;;-2.72;100.00;100416.03;1783236;80;21185;-83
2021/12/31 06:41:56;;;;;;;81.15;38.15;;;;;;;-2.68;100.00;100405.50;1782417;80;21834;-80
2021/12/31 06:45:01;;;;;;;89.00;40.85;;;;;;;-2.61;100.00;100411.75;1780060;80;21244;-81
2021/12/31 06:48:06;;;;;;;90.50;40.60;;;;;;;-2.47;100.00;100408.74;1750556;81;21315;-80
2021/12/31 06:51:12;;;;;;;77.55;34.98;;;;;;;-2.35;100.00;100420.94;1786377;80;21311;-81
2021/12/31 06:54:17;;;;;;;72.53;35.40;;;;;;;-2.21;100.00;100413.41;1765824;78;21202;-82
2021/12/31 06:57:24;;;;;;;81.55;37.60;;;;;;;-2.08;100.00;100418.39;1736779;81;21277;-81
2021/12/31 07:00:30;;;;;;;76.33;38.15;;;;;;;-2.03;100.00;100412.75;1775572;80;21153;-81
2021/12/31 07:03:35;;;;;;;91.75;38.92;;;;;;;-2.04;100.00;100416.39;1777935;80;21300;-81
2021/12/31 07:06:41;;;;;;;79.15;33.85;;;;;;;-2.00;100.00;100417.94;1775367;80;21308;-81
2021/12/31 07:09:47;;;;;;;76.40;34.18;;;;;;;-1.99;100.00;100408.92;1778520;80;21260;-82
2021/12/31 07:12:52;;;;;;;69.32;33.58;;;;;;;-1.99;100.00;100408.06;1763259;80;21285;-81
2021/12/31 07:15:57;;;;;;;64.60;27.85;;;;;;;-1.96;100.00;100411.91;1782615;80;21289;-81
2021/12/31 07:19:02;;;;;;;69.92;30.50;;;;;;;-1.94;100.00;100410.84;1770992;80;21308;-81
2021/12/31 07:22:07;;;;;;;64.35;29.98;;;;;;;-1.98;100.00;100414.67;1772285;80;21755;-80
2021/12/31 07:25:14;;;;;;;67.12;31.55;;;;;;;-1.96;100.00;100414.11;1785171;80;21791;-81
2021/12/31 07:28:20;;;;;;;64.77;29.48;;;;;;;-1.88;100.00;100414.52;1773468;80;21834;-81
2021/12/31 07:31:26;;;;;;;59.27;27.62;;;;;;;-1.81;100.00;100413.16;1767942;78;21253;-81
2021/12/31 07:34:32;;;;;;;64.40;30.82;;;;;;;-1.89;100.00;100407.88;1755042;80;21586;-82
2021/12/31 07:37:37;;;;;;;55.70;27.02;;;;;;;-2.05;100.00;100406.63;1788493;78;21295;-81
2021/12/31 07:40:43;;;;;;;56.77;24.70;;;;;;;-2.13;100.00;100400.39;1770607;79;21148;-81
2021/12/31 07:43:49;;;;;;;56.53;25.27;;;;;;;-2.17;100.00;100402.86;1769562;79;21324;-82
2021/12/31 07:46:55;;;;;;;59.48;27.35;;;;;;;-2.16;100.00;100398.40;1780934;80;21298;-82
2021/12/31 07:50:01;;;;;;;61.60;28.38;;;;;;;-2.12;100.00;100403.93;1781832;78;21162;-80
2021/12/31 07:53:06;;;;;;;61.33;29.35;;;;;;;-2.04;100.00;100402.13;1773612;79;21283;-81
2021/12/31 07:56:14;;;;;;;63.58;26.42;;;;;;;-1.94;100.00;100397.44;1774501;78;21838;-80
2021/12/31 07:59:19;;;;;;;56.55;24.72;;;;;;;-1.92;100.00;100401.39;1792659;79;21849;-80
2021/12/31 08:02:24;;;;;;;62.23;27.02;;;;;;;-1.98;100.00;100399.92;1785897;78;21291;-80
2021/12/31 08:05:31;;;;;;;58.30;25.97;;;;;;;-2.02;100.00;100402.44;1774538;78;21865;-81
2021/12/31 08:08:36;;;;;;;53.50;24.18;;;;;;;-1.94;100.00;100402.80;1779133;80;21304;-82
2021/12/31 08:11:42;;;;;;;50.10;23.40;;;;;;;-1.78;100.00;100407.24;1788969;79;21150;-81
2021/12/31 08:14:48;;;;;;;60.05;25.77;;;;;;;-1.69;100.00;100402.64;1760276;81;21273;-81
2021/12/31 08:17:55;;;;;;;44.58;22.42;;;;;;;-1.60;100.00;100387.28;1712672;82;21613;-81
2021/12/31 08:21:01;;;;;;;42.27;22.40;;;;;;;-1.57;100.00;100376.37;1728810;81;21186;-81
2021/12/31 08:24:06;;;;;;;44.45;21.57;;;;;;;-1.58;100.00;100371.48;1721936;81;21177;-80
2021/12/31 08:27:11;;;;;;;43.13;21.55;;;;;;;-1.61;100.00;100365.45;1727040;81;21190;-80
2021/12/31 08:30:19;;;;;;;41.05;22.48;;;;;;;-1.63;100.00;100360.67;1739421;81;21177;-80
2021/12/31 08:33:24;;;;;;;43.68;21.82;;;;;;;-1.62;100.00;100357.02;1716687;81;21328;-81
2021/12/31 08:36:30;;;;;;;35.55;19.57;;;;;;;-1.53;100.00;100353.76;1777616;79;22071;-81
2021/12/31 08:39:36;;;;;;;48.87;22.35;;;;;;;-1.44;100.00;100352.31;1794217;78;21180;-80
2021/12/31 08:42:40;;;;;;;43.35;21.52;;;;;;;-1.40;100.00;100342.63;1782207;78;21854;-81
2021/12/31 08:45:47;;;;;;;43.38;23.27;;;;;;;-1.25;100.00;100346.61;1774564;79;21307;-81
2021/12/31 08:48:53;;;;;;;39.60;22.70;;;;;;;-1.17;100.00;100337.58;1783496;78;21737;-80
2021/12/31 08:51:59;;;;;;;38.85;20.23;;;;;;;-1.09;100.00;100338.77;1774216;79;21280;-81
2021/12/31 08:55:05;;;;;;;33.95;19.98;;;;;;;-0.98;100.00;100332.71;1775170;79;21272;-81
2021/12/31 08:58:11;;;;;;;39.67;20.12;;;;;;;-0.92;100.00;100334.12;1771400;79;21217;-80
2021/12/31 09:01:17;;;;;;;42.05;21.27;;;;;;;-0.85;100.00;100335.41;1777170;78;21284;-81
2021/12/31 09:04:22;;;;;;;42.40;20.27;;;;;;;-0.86;100.00;100327.84;1785812;78;21749;-81
2021/12/31 09:07:28;;;;;;;44.67;22.98;;;;;;;-0.85;100.00;100326.91;1787437;78;21342;-81
2021/12/31 09:10:37;;;;;;;35.73;20.35;;;;;;;-0.83;100.00;100318.25;1787203;79;21165;-81
2021/12/31 09:13:43;;;;;;;40.00;20.65;;;;;;;-0.81;100.00;100318.99;1778927;79;21312;-81
2021/12/31 09:16:49;;;;;;;34.55;18.48;;;;;;;-0.80;100.00;100311.34;1782987;79;21272;-81
2021/12/31 09:19:54;;;;;;;42.33;20.72;;;;;;;-0.73;100.00;100309.57;1782616;78;21351;-81
2021/12/31 09:23:02;;;;;;;39.38;19.67;;;;;;;-0.72;100.00;100307.25;1786725;79;21295;-81
2021/12/31 09:26:08;;;;;;;35.10;20.05;;;;;;;-0.65;100.00;100303.20;1791213;78;21198;-80
2021/12/31 09:29:18;;;;;;;39.48;19.73;;;;;;;-0.60;100.00;100299.23;1812387;78;21264;-81
2021/12/31 09:32:22;;;;;;;41.05;19.25;;;;;;;-0.53;100.00;100295.63;1721781;83;21313;-81
2021/12/31 09:35:26;;;;;;;42.23;21.17;;;;;;;-0.48;100.00;100292.13;1784925;80;21274;-81
2021/12/31 09:38:30;;;;;;;42.40;20.62;;;;;;;-0.41;100.00;100285.38;1786598;79;21308;-81
2021/12/31 09:41:36;;;;;;;44.80;22.45;;;;;;;-0.32;100.00;100279.84;1787395;80;21162;-81
2021/12/31 09:44:42;;;;;;;46.28;21.35;;;;;;;-0.32;100.00;100276.67;1787371;80;21253;-81
2021/12/31 09:47:50;;;;;;;39.48;19.77;;;;;;;-0.29;100.00;100279.12;1787589;80;21185;-81
2021/12/31 09:50:58;;;;;;;40.70;19.95;;;;;;;-0.33;100.00;100287.05;1787523;80;21266;-81
2021/12/31 09:54:06;;;;;;;46.13;21.10;;;;;;;-0.31;100.00;100277.04;1787615;80;21825;-81
2021/12/31 09:57:11;;;;;;;40.15;20.97;;;;;;;-0.31;100.00;100277.04;1787647;80;21216;-81
2021/12/31 10:00:19;;;;;;;48.33;23.25;;;;;;;-0.31;100.00;100268.98;1787770;80;21877;-81
2021/12/31 10:03:28;;;;;;;42.70;21.90;;;;;;;-0.33;100.00;100276.30;1787610;80;21303;-81
2021/12/31 10:06:33;;;;;;;46.60;21.33;;;;;;;-0.38;100.00;100273.05;1790697;80;21260;-81
2021/12/31 10:09:40;;;;;;;42.58;21.65;;;;;;;-0.41;100.00;100269.73;1790197;80;21192;-81
2021/12/31 10:13:00;;;;;;;44.05;21.52;;;;;;;-0.42;100.00;100271.56;1799490;78;21295;-81
2021/12/31 10:16:02;;;;;;;44.75;22.90;;;;;;;-0.45;100.00;100273.12;1807719;79;21359;-81
2021/12/31 10:19:22;;;;;;;49.20;22.90;;;;;;;-0.46;100.00;100268.72;1802825;79;21826;-81
2021/12/31 10:22:29;;;;;;;43.20;22.32;;;;;;;-0.54;100.00;100265.20;1802724;79;21309;-81
2021/12/31 10:25:36;;;;;;;43.00;22.45;;;;;;;-0.54;100.00;100259.83;1803281;79;21149;-81
2021/12/31 10:28:42;;;;;;;45.95;23.32;;;;;;;-0.56;100.00;100254.20;1802431;79;21288;-81
2021/12/31 10:31:53;;;;;;;51.10;24.87;;;;;;;-0.64;100.00;100251.19;1802402;79;21731;-81
2021/12/31 10:34:59;;;;;;;49.73;24.45;;;;;;;-0.69;100.00;100257.36;1803078;79;21337;-81
2021/12/31 10:38:06;;;;;;;54.20;24.87;;;;;;;-0.72;100.00;100253.53;1802814;79;21153;-81
2021/12/31 10:41:11;;;;;;;48.98;26.45;;;;;;;-0.75;100.00;100255.08;1802525;79;21283;-81
2021/12/31 10:44:16;;;;;;;47.40;22.80;;;;;;;-0.78;100.00;100248.97;1802080;79;21620;-81
2021/12/31 10:47:26;;;;;;;44.08;22.48;;;;;;;-0.75;100.00;100241.64;1803237;79;21188;-81
2021/12/31 10:50:32;;;;;;;41.77;20.57;;;;;;;-0.77;100.00;100235.05;1802997;79;21320;-81
2021/12/31 10:53:37;;;;;;;36.45;20.35;;;;;;;-0.79;100.00;100241.88;1802728;79;21292;-81
2021/12/31 10:56:47;;;;;;;43.87;23.02;;;;;;;-0.83;100.00;100246.22;1803273;79;21181;-81
2021/12/31 10:59:51;;;;;;;;;;;;;;;-0.85;100.00;100236.05;1805799;79;21267;-81
2021/12/31 11:02:57;;;;;;;42.78;21.97;;;;;;;-0.87;100.00;100237.51;1803313;79;20249;-81
2021/12/31 11:06:04;;;;;;;45.50;22.42;;;;;;;-0.92;100.00;100227.56;1803203;79;21299;-81
2021/12/31 11:09:08;;;;;;;35.60;19.67;;;;;;;-0.94;100.00;100218.77;1786602;79;21291;-81
2021/12/31 11:12:14;;;;;;;39.10;21.52;;;;;;;-0.84;100.00;100217.17;1803381;79;21173;-81
2021/12/31 11:15:20;;;;;;;38.65;21.85;;;;;;;-0.84;100.00;100211.80;1802279;79;21292;-81
2021/12/31 11:18:25;;;;;;;47.33;24.82;;;;;;;-0.81;100.00;100214.25;1803142;79;21196;-81
2021/12/31 11:21:30;;;;;;;37.78;20.88;;;;;;;-0.78;100.00;100212.70;1802905;79;21291;-81
2021/12/31 11:24:40;;;;;;;37.20;20.08;;;;;;;-0.66;100.00;100210.12;1803341;79;21287;-81
2021/12/31 11:27:47;;;;;;;38.98;19.27;;;;;;;-0.57;100.00;100211.67;1803177;79;21287;-81
2021/12/31 11:30:53;;;;;;;34.58;18.98;;;;;;;-0.54;100.00;100203.89;1762871;81;21244;-81
2021/12/31 11:34:11;;;;;;;34.38;19.10;;;;;;;-0.58;100.00;100210.45;1777688;81;21157;-81
2021/12/31 11:37:16;;;;;;;34.15;19.92;;;;;;;-0.67;100.00;100205.72;1777522;80;21311;-81
2021/12/31 11:40:45;;;;;;;35.98;20.65;;;;;;;-0.71;100.00;100207.75;1757942;80;21843;-81
2021/12/31 11:43:50;;;;;;;38.15;20.57;;;;;;;-0.80;100.00;100201.67;1766523;80;21292;-81
2021/12/31 11:46:55;;;;;;;31.90;17.80;;;;;;;-0.78;100.00;100196.59;1777499;81;21299;-81
2021/12/31 11:50:02;;;;;;;29.63;16.35;;;;;;;-0.75;100.00;100204.93;1777809;81;21263;-81
2021/12/31 11:53:09;;;;;;;30.90;16.02;;;;;;;-0.82;100.00;100196.42;1777660;81;21173;-81
2021/12/31 11:56:15;;;;;;;29.98;18.05;;;;;;;-0.82;100.00;100197.77;1777042;81;21197;-81
2021/12/31 11:59:24;;;;;;;28.15;16.30;;;;;;;-0.82;100.00;100196.42;1777730;81;21275;-81
2021/12/31 12:02:41;;;;;;;29.80;15.63;;;;;;;-0.79;100.00;100196.22;1777767;81;21865;-81
2021/12/31 12:05:51;;;;;;;26.33;14.47;;;;;;;-0.80;100.00;100195.84;1777653;81;21209;-81
2021/12/31 12:08:59;;;;;;;31.37;17.75;;;;;;;-0.77;100.00;100192.08;1776086;80;21774;-81
2021/12/31 12:12:19;;;;;;;27.82;16.65;;;;;;;-0.79;100.00;100194.02;1777664;81;21845;-81
2021/12/31 12:15:32;;;;;;;28.52;17.73;;;;;;;-0.78;100.00;100191.22;1776157;80;21164;-81
2021/12/31 12:19:02;;;;;;;33.30;19.45;;;;;;;-0.79;100.00;100185.48;1777751;81;21315;-81
2021/12/31 12:22:08;;;;;;;29.23;16.67;;;;;;;-0.74;100.00;100188.33;1776249;81;21185;-81
2021/12/31 12:25:33;;;;;;;39.55;20.08;;;;;;;-0.67;100.00;100190.94;1777760;79;21288;-81
2021/12/31 12:28:40;;;;;;;36.25;20.20;;;;;;;-0.63;100.00;100188.42;1777681;81;21854;-81
2021/12/31 12:31:54;;;;;;;35.17;20.52;;;;;;;-0.59;100.00;100189.93;1777435;81;21276;-81
2021/12/31 12:34:53;;;;;;;33.35;17.87;;;;;;;-0.63;100.00;100189.77;1775919;81;21220;-80
2021/12/31 12:38:25;;;;;;;30.43;17.67;;;;;;;-0.66;100.00;100189.97;1776372;81;21335;-81
2021/12/31 12:41:31;;;;;;;39.25;19.87;;;;;;;-0.78;100.00;100183.16;1768488;79;21162;-80
2021/12/31 12:44:36;;;;;;;45.95;21.85;;;;;;;-0.84;100.00;100183.59;1759766;81;21581;-80
2021/12/31 12:47:41;;;;;;;37.78;19.75;;;;;;;-0.85;100.00;100193.08;1759178;81;21328;-80
2021/12/31 12:50:48;;;;;;;45.50;22.70;;;;;;;-0.90;100.00;100192.05;1759546;81;21807;-80
2021/12/31 12:53:55;;;;;;;40.63;20.90;;;;;;;-0.93;100.00;100188.27;1743782;81;21177;-80
2021/12/31 12:56:53;;;;;;;34.58;18.10;;;;;;;-0.86;100.00;100192.22;1759571;81;21296;-80
2021/12/31 12:59:58;;;;;;;45.20;22.05;;;;;;;-0.88;100.00;100191.97;1759896;81;21300;-80
2021/12/31 13:03:13;;;;;;;44.55;22.90;;;;;;;-0.94;100.00;100185.20;1759822;81;21196;-80
2021/12/31 13:06:19;;;;;;;46.65;23.85;;;;;;;-0.92;100.00;100179.23;1759730;81;21276;-80
2021/12/31 13:09:24;;;;;;;44.63;23.70;;;;;;;-0.96;100.00;100175.03;1759869;81;21810;-80
2021/12/31 13:12:30;;;;;;;41.48;21.97;;;;;;;-1.04;100.00;100180.06;1758529;81;22386;-80
2021/12/31 13:15:35;;;;;;;44.53;22.50;;;;;;;-1.11;100.00;100177.45;1759638;81;21268;-81
2021/12/31 13:18:43;;;;;;;42.65;21.82;;;;;;;-1.16;100.00;100171.05;1758448;81;21332;-80
2021/12/31 13:21:49;;;;;;;40.20;20.40;;;;;;;-1.22;100.00;100175.95;1760102;81;21936;-80
2021/12/31 13:24:58;;;;;;;49.27;24.47;;;;;;;-1.25;100.00;100173.50;1759777;81;21747;-82
2021/12/31 13:28:25;;;;;;;;;;;;;;;-1.33;100.00;100173.53;1745244;81;21284;-80
2021/12/31 13:31:44;;;;;;;48.35;24.60;;;;;;;-1.37;100.00;100169.33;1759901;81;20251;-80
2021/12/31 13:34:59;;;;;;;43.75;22.75;;;;;;;-1.38;100.00;100171.64;1758461;81;21502;-82
2021/12/31 13:38:08;;;;;;;45.40;24.47;;;;;;;-1.37;100.00;100166.64;1758347;81;21177;-79
2021/12/31 13:41:13;;;;;;;48.48;24.95;;;;;;;-1.40;100.00;100164.19;1759780;81;21138;-79
2021/12/31 13:44:20;;;;;;;43.10;24.25;;;;;;;-1.41;100.00;100161.59;1777662;80;21264;-79
2021/12/31 13:47:27;;;;;;;55.30;28.73;;;;;;;-1.43;100.00;100165.73;1760191;81;21299;-79
2021/12/31 13:50:38;;;;;;;55.55;29.20;;;;;;;-1.52;100.00;100168.17;1777677;81;21841;-79
2021/12/31 13:53:44;;;;;;;49.58;27.58;;;;;;;-1.58;100.00;100169.45;1777773;81;21375;-79
2021/12/31 13:56:55;;;;;;;60.60;29.77;;;;;;;-1.57;100.00;100163.12;1777640;79;21259;-79
2021/12/31 14:00:01;;;;;;;42.13;22.60;;;;;;;-1.57;100.00;100161.29;1776248;81;21153;-79
2021/12/31 14:03:08;;;;;;;53.20;26.57;;;;;;;-1.57;100.00;100165.80;1777812;81;21299;-79